sensor_id;sensor_type;location;lat;lon;timestamp;P1;durP1;ratioP1;P2;durP2;ratioP2
46455;SDS011;64052;47.466;9.094;2023-04-03T00:04:18;3.70;;;3.30;;
46455;SDS011;64052;47.466;9.094;2023-04-03T00:09:19;3.83;;;3.53;;
46455;SDS011;64052;47.466;9.094;2023-04-03T00:14:21;3.05;;;2.75;;
46455;SDS011;64052;47.466;9.094;2023-04-03T00:19:22;3.75;;;3.38;;
46455;SDS011;64052;47.466;9.094;2023-04-03T00:24:24;4.20;;;3.13;;
46455;SDS011;64052;47.466;9.094;2023-04-03T00:29:25;3.92;;;3.33;;
46455;SDS011;64052;47.466;9.094;2023-04-03T00:34:27;4.05;;;3.40;;
46455;SDS011;64052;47.466;9.094;2023-04-03T00:39:28;4.35;;;3.40;;
46455;SDS011;64052;47.466;9.094;2023-04-03T00:49:35;4.07;;;3.70;;
46455;SDS011;64052;47.466;9.094;2023-04-03T00:54:38;5.05;;;3.97;;
46455;SDS011;64052;47.466;9.094;2023-04-03T00:59:43;4.57;;;3.50;;
46455;SDS011;64052;47.466;9.094;2023-04-03T01:04:47;4.57;;;4.18;;
46455;SDS011;64052;47.466;9.094;2023-04-03T01:09:50;4.53;;;4.03;;
46455;SDS011;64052;47.466;9.094;2023-04-03T01:14:55;3.70;;;3.40;;
46455;SDS011;64052;47.466;9.094;2023-04-03T01:25:39;5.63;;;4.47;;
46455;SDS011;64052;47.466;9.094;2023-04-03T01:36:08;3.88;;;3.55;;
46455;SDS011;64052;47.466;9.094;2023-04-03T01:41:11;4.28;;;3.88;;
46455;SDS011;64052;47.466;9.094;2023-04-03T01:46:15;3.85;;;3.55;;
46455;SDS011;64052;47.466;9.094;2023-04-03T01:51:18;5.18;;;4.68;;
46455;SDS011;64052;47.466;9.094;2023-04-03T01:56:19;4.80;;;4.22;;
46455;SDS011;64052;47.466;9.094;2023-04-03T02:01:21;4.72;;;3.80;;
46455;SDS011;64052;47.466;9.094;2023-04-03T02:06:23;3.97;;;3.55;;
46455;SDS011;64052;47.466;9.094;2023-04-03T02:11:25;5.28;;;4.30;;
46455;SDS011;64052;47.466;9.094;2023-04-03T02:16:26;5.32;;;4.00;;
46455;SDS011;64052;47.466;9.094;2023-04-03T02:21:28;7.28;;;4.47;;
46455;SDS011;64052;47.466;9.094;2023-04-03T02:26:29;5.13;;;4.63;;
46455;SDS011;64052;47.466;9.094;2023-04-03T02:31:31;5.68;;;5.10;;
46455;SDS011;64052;47.466;9.094;2023-04-03T02:36:35;5.07;;;4.57;;
46455;SDS011;64052;47.466;9.094;2023-04-03T02:41:40;5.60;;;5.00;;
46455;SDS011;64052;47.466;9.094;2023-04-03T02:46:47;5.28;;;4.43;;
46455;SDS011;64052;47.466;9.094;2023-04-03T02:51:49;5.38;;;4.88;;
46455;SDS011;64052;47.466;9.094;2023-04-03T02:56:51;5.97;;;5.22;;
46455;SDS011;64052;47.466;9.094;2023-04-03T03:01:53;5.35;;;4.82;;
46455;SDS011;64052;47.466;9.094;2023-04-03T03:06:54;6.18;;;5.20;;
46455;SDS011;64052;47.466;9.094;2023-04-03T03:11:56;5.18;;;4.68;;
46455;SDS011;64052;47.466;9.094;2023-04-03T03:16:58;5.18;;;4.68;;
46455;SDS011;64052;47.466;9.094;2023-04-03T03:22:00;6.00;;;5.03;;
46455;SDS011;64052;47.466;9.094;2023-04-03T03:27:01;6.45;;;5.53;;
46455;SDS011;64052;47.466;9.094;2023-04-03T03:32:03;6.10;;;5.03;;
46455;SDS011;64052;47.466;9.094;2023-04-03T03:37:05;5.25;;;4.75;;
46455;SDS011;64052;47.466;9.094;2023-04-03T03:42:07;7.00;;;5.70;;
46455;SDS011;64052;47.466;9.094;2023-04-03T03:47:09;6.30;;;5.15;;
46455;SDS011;64052;47.466;9.094;2023-04-03T03:52:11;6.65;;;5.70;;
46455;SDS011;64052;47.466;9.094;2023-04-03T03:57:13;6.10;;;4.90;;
46455;SDS011;64052;47.466;9.094;2023-04-03T04:02:15;5.88;;;4.70;;
46455;SDS011;64052;47.466;9.094;2023-04-03T04:07:17;5.43;;;4.93;;
46455;SDS011;64052;47.466;9.094;2023-04-03T04:12:19;5.95;;;5.38;;
46455;SDS011;64052;47.466;9.094;2023-04-03T04:17:21;6.10;;;5.50;;
46455;SDS011;64052;47.466;9.094;2023-04-03T04:22:23;6.32;;;5.22;;
46455;SDS011;64052;47.466;9.094;2023-04-03T04:27:25;7.38;;;5.32;;
46455;SDS011;64052;47.466;9.094;2023-04-03T04:32:27;7.32;;;5.25;;
46455;SDS011;64052;47.466;9.094;2023-04-03T04:37:29;5.72;;;5.03;;
46455;SDS011;64052;47.466;9.094;2023-04-03T04:42:31;6.80;;;6.20;;
46455;SDS011;64052;47.466;9.094;2023-04-03T04:47:33;5.38;;;4.88;;
46455;SDS011;64052;47.466;9.094;2023-04-03T04:52:35;5.53;;;4.68;;
46455;SDS011;64052;47.466;9.094;2023-04-03T04:57:37;5.53;;;5.00;;
46455;SDS011;64052;47.466;9.094;2023-04-03T05:02:40;4.80;;;4.32;;
46455;SDS011;64052;47.466;9.094;2023-04-03T05:07:41;5.90;;;5.38;;
46455;SDS011;64052;47.466;9.094;2023-04-03T05:12:43;5.03;;;4.57;;
46455;SDS011;64052;47.466;9.094;2023-04-03T05:17:45;4.50;;;4.10;;
46455;SDS011;64052;47.466;9.094;2023-04-03T05:22:48;7.63;;;4.90;;
46455;SDS011;64052;47.466;9.094;2023-04-03T05:27:51;6.45;;;4.90;;
46455;SDS011;64052;47.466;9.094;2023-04-03T05:32:53;5.55;;;4.68;;
46455;SDS011;64052;47.466;9.094;2023-04-03T05:38:07;5.20;;;4.70;;
46455;SDS011;64052;47.466;9.094;2023-04-03T05:43:09;5.57;;;4.93;;
46455;SDS011;64052;47.466;9.094;2023-04-03T05:48:14;5.47;;;4.55;;
46455;SDS011;64052;47.466;9.094;2023-04-03T05:53:21;6.38;;;4.68;;
46455;SDS011;64052;47.466;9.094;2023-04-03T05:58:27;5.65;;;5.15;;
46455;SDS011;64052;47.466;9.094;2023-04-03T06:03:30;5.35;;;4.68;;
46455;SDS011;64052;47.466;9.094;2023-04-03T06:08:31;5.75;;;5.18;;
46455;SDS011;64052;47.466;9.094;2023-04-03T06:13:33;7.07;;;5.13;;
46455;SDS011;64052;47.466;9.094;2023-04-03T06:18:35;6.22;;;5.18;;
46455;SDS011;64052;47.466;9.094;2023-04-03T06:23:37;5.88;;;5.38;;
46455;SDS011;64052;47.466;9.094;2023-04-03T06:28:39;5.78;;;5.22;;
46455;SDS011;64052;47.466;9.094;2023-04-03T06:33:41;5.15;;;4.63;;
46455;SDS011;64052;47.466;9.094;2023-04-03T06:38:42;4.72;;;4.20;;
46455;SDS011;64052;47.466;9.094;2023-04-03T06:43:44;5.32;;;4.70;;
46455;SDS011;64052;47.466;9.094;2023-04-03T06:48:46;5.68;;;4.82;;
46455;SDS011;64052;47.466;9.094;2023-04-03T06:53:48;5.05;;;4.28;;
46455;SDS011;64052;47.466;9.094;2023-04-03T06:58:51;5.78;;;4.43;;
46455;SDS011;64052;47.466;9.094;2023-04-03T07:03:53;5.78;;;4.90;;
46455;SDS011;64052;47.466;9.094;2023-04-03T07:08:55;5.90;;;4.95;;
46455;SDS011;64052;47.466;9.094;2023-04-03T07:13:57;6.53;;;4.72;;
46455;SDS011;64052;47.466;9.094;2023-04-03T07:18:58;5.93;;;4.50;;
46455;SDS011;64052;47.466;9.094;2023-04-03T07:24:00;5.05;;;4.65;;
46455;SDS011;64052;47.466;9.094;2023-04-03T07:29:02;4.57;;;4.18;;
46455;SDS011;64052;47.466;9.094;2023-04-03T07:34:04;5.20;;;4.38;;
46455;SDS011;64052;47.466;9.094;2023-04-03T07:39:06;5.25;;;4.72;;
46455;SDS011;64052;47.466;9.094;2023-04-03T07:44:07;5.72;;;4.88;;
46455;SDS011;64052;47.466;9.094;2023-04-03T07:49:09;4.97;;;4.50;;
46455;SDS011;64052;47.466;9.094;2023-04-03T07:54:11;5.38;;;4.70;;
46455;SDS011;64052;47.466;9.094;2023-04-03T07:59:13;5.70;;;4.68;;
46455;SDS011;64052;47.466;9.094;2023-04-03T08:04:15;6.53;;;5.03;;
46455;SDS011;64052;47.466;9.094;2023-04-03T08:09:18;5.65;;;5.00;;
46455;SDS011;64052;47.466;9.094;2023-04-03T08:14:20;5.78;;;4.57;;
46455;SDS011;64052;47.466;9.094;2023-04-03T08:19:22;4.90;;;4.38;;
46455;SDS011;64052;47.466;9.094;2023-04-03T08:24:27;6.00;;;5.00;;
46455;SDS011;64052;47.466;9.094;2023-04-03T08:29:28;4.72;;;4.22;;
46455;SDS011;64052;47.466;9.094;2023-04-03T08:34:30;5.95;;;4.82;;
46455;SDS011;64052;47.466;9.094;2023-04-03T08:39:32;5.80;;;4.60;;
46455;SDS011;64052;47.466;9.094;2023-04-03T08:44:45;6.45;;;4.63;;
46455;SDS011;64052;47.466;9.094;2023-04-03T08:49:52;6.93;;;4.50;;
46455;SDS011;64052;47.466;9.094;2023-04-03T08:54:57;6.65;;;5.07;;
46455;SDS011;64052;47.466;9.094;2023-04-03T09:05:19;5.45;;;4.50;;
46455;SDS011;64052;47.466;9.094;2023-04-03T09:10:29;5.25;;;4.75;;
46455;SDS011;64052;47.466;9.094;2023-04-03T09:15:34;5.15;;;4.65;;
46455;SDS011;64052;47.466;9.094;2023-04-03T09:25:47;5.97;;;5.47;;
46455;SDS011;64052;47.466;9.094;2023-04-03T09:30:58;6.55;;;4.55;;
46455;SDS011;64052;47.466;9.094;2023-04-03T09:36:02;5.93;;;4.72;;
46455;SDS011;64052;47.466;9.094;2023-04-03T09:41:13;5.45;;;4.75;;
46455;SDS011;64052;47.466;9.094;2023-04-03T09:56:32;6.05;;;5.43;;
46455;SDS011;64052;47.466;9.094;2023-04-03T10:01:35;5.82;;;5.03;;
46455;SDS011;64052;47.466;9.094;2023-04-03T10:06:44;7.07;;;5.45;;
46455;SDS011;64052;47.466;9.094;2023-04-03T10:11:58;6.05;;;5.38;;
46455;SDS011;64052;47.466;9.094;2023-04-03T10:17:09;5.68;;;5.18;;
46455;SDS011;64052;47.466;9.094;2023-04-03T10:38:36;5.35;;;4.93;;
46455;SDS011;64052;47.466;9.094;2023-04-03T10:43:52;6.75;;;4.97;;
46455;SDS011;64052;47.466;9.094;2023-04-03T10:49:35;5.15;;;4.65;;
46455;SDS011;64052;47.466;9.094;2023-04-03T11:00:19;5.43;;;4.50;;
46455;SDS011;64052;47.466;9.094;2023-04-03T11:05:29;5.30;;;4.47;;
46455;SDS011;64052;47.466;9.094;2023-04-03T11:10:45;5.88;;;4.88;;
46455;SDS011;64052;47.466;9.094;2023-04-03T11:15:50;5.97;;;4.63;;
46455;SDS011;64052;47.466;9.094;2023-04-03T11:21:03;5.50;;;4.97;;
46455;SDS011;64052;47.466;9.094;2023-04-03T11:26:13;5.20;;;4.32;;
46455;SDS011;64052;47.466;9.094;2023-04-03T11:36:43;8.10;;;5.22;;
46455;SDS011;64052;47.466;9.094;2023-04-03T11:41:49;4.97;;;4.47;;
46455;SDS011;64052;47.466;9.094;2023-04-03T11:47:08;5.60;;;4.40;;
46455;SDS011;64052;47.466;9.094;2023-04-03T11:52:11;4.72;;;4.32;;
46455;SDS011;64052;47.466;9.094;2023-04-03T11:57:38;6.70;;;4.28;;
46455;SDS011;64052;47.466;9.094;2023-04-03T12:02:59;5.20;;;4.70;;
46455;SDS011;64052;47.466;9.094;2023-04-03T12:08:23;6.22;;;5.60;;
46455;SDS011;64052;47.466;9.094;2023-04-03T12:13:30;4.55;;;4.00;;
46455;SDS011;64052;47.466;9.094;2023-04-03T12:18:40;5.75;;;4.40;;
46455;SDS011;64052;47.466;9.094;2023-04-03T12:34:41;6.20;;;4.90;;
46455;SDS011;64052;47.466;9.094;2023-04-03T12:45:16;3.90;;;3.60;;
46455;SDS011;64052;47.466;9.094;2023-04-03T12:50:24;4.95;;;4.13;;
46455;SDS011;64052;47.466;9.094;2023-04-03T12:55:30;4.63;;;3.88;;
46455;SDS011;64052;47.466;9.094;2023-04-03T13:00:33;3.83;;;3.45;;
46455;SDS011;64052;47.466;9.094;2023-04-03T13:05:36;4.18;;;3.80;;
46455;SDS011;64052;47.466;9.094;2023-04-03T13:10:47;4.53;;;4.13;;
46455;SDS011;64052;47.466;9.094;2023-04-03T13:15:57;4.75;;;3.83;;
46455;SDS011;64052;47.466;9.094;2023-04-03T13:26:23;4.03;;;3.63;;
46455;SDS011;64052;47.466;9.094;2023-04-03T13:31:37;3.78;;;3.42;;
46455;SDS011;64052;47.466;9.094;2023-04-03T13:36:44;4.00;;;3.53;;
46455;SDS011;64052;47.466;9.094;2023-04-03T13:41:57;3.90;;;3.42;;
46455;SDS011;64052;47.466;9.094;2023-04-03T13:47:14;3.83;;;3.53;;
46455;SDS011;64052;47.466;9.094;2023-04-03T13:52:26;4.22;;;3.80;;
46455;SDS011;64052;47.466;9.094;2023-04-03T13:57:32;4.80;;;3.90;;
46455;SDS011;64052;47.466;9.094;2023-04-03T14:02:34;3.90;;;3.38;;
46455;SDS011;64052;47.466;9.094;2023-04-03T14:07:36;4.05;;;3.65;;
46455;SDS011;64052;47.466;9.094;2023-04-03T14:12:38;3.85;;;3.55;;
46455;SDS011;64052;47.466;9.094;2023-04-03T14:17:40;4.50;;;4.03;;
46455;SDS011;64052;47.466;9.094;2023-04-03T14:22:41;4.15;;;3.80;;
46455;SDS011;64052;47.466;9.094;2023-04-03T14:27:44;3.65;;;3.35;;
46455;SDS011;64052;47.466;9.094;2023-04-03T14:32:48;4.28;;;3.88;;
46455;SDS011;64052;47.466;9.094;2023-04-03T14:37:50;4.10;;;3.70;;
46455;SDS011;64052;47.466;9.094;2023-04-03T14:42:54;5.60;;;4.20;;
46455;SDS011;64052;47.466;9.094;2023-04-03T14:47:55;4.20;;;3.80;;
46455;SDS011;64052;47.466;9.094;2023-04-03T14:52:58;3.70;;;3.40;;
46455;SDS011;64052;47.466;9.094;2023-04-03T14:58:00;4.43;;;4.03;;
46455;SDS011;64052;47.466;9.094;2023-04-03T15:03:02;4.10;;;3.75;;
46455;SDS011;64052;47.466;9.094;2023-04-03T15:08:04;4.28;;;3.88;;
46455;SDS011;64052;47.466;9.094;2023-04-03T15:13:05;3.80;;;3.50;;
46455;SDS011;64052;47.466;9.094;2023-04-03T15:18:09;4.50;;;4.10;;
46455;SDS011;64052;47.466;9.094;2023-04-03T15:23:15;3.80;;;3.45;;
46455;SDS011;64052;47.466;9.094;2023-04-03T15:33:34;4.07;;;3.53;;
46455;SDS011;64052;47.466;9.094;2023-04-03T15:38:36;4.25;;;3.85;;
46455;SDS011;64052;47.466;9.094;2023-04-03T15:43:37;4.28;;;3.60;;
46455;SDS011;64052;47.466;9.094;2023-04-03T15:48:39;5.13;;;3.63;;
46455;SDS011;64052;47.466;9.094;2023-04-03T15:53:41;3.80;;;3.42;;
46455;SDS011;64052;47.466;9.094;2023-04-03T15:58:42;3.78;;;3.40;;
46455;SDS011;64052;47.466;9.094;2023-04-03T16:03:44;3.95;;;3.60;;
46455;SDS011;64052;47.466;9.094;2023-04-03T16:08:46;5.47;;;3.78;;
46455;SDS011;64052;47.466;9.094;2023-04-03T16:13:50;4.05;;;3.75;;
46455;SDS011;64052;47.466;9.094;2023-04-03T16:18:51;3.72;;;3.42;;
46455;SDS011;64052;47.466;9.094;2023-04-03T16:23:57;4.88;;;3.35;;
46455;SDS011;64052;47.466;9.094;2023-04-03T16:29:00;4.22;;;3.83;;
46455;SDS011;64052;47.466;9.094;2023-04-03T16:34:01;3.70;;;3.40;;
46455;SDS011;64052;47.466;9.094;2023-04-03T16:39:03;4.35;;;3.75;;
46455;SDS011;64052;47.466;9.094;2023-04-03T16:44:05;7.50;;;3.80;;
46455;SDS011;64052;47.466;9.094;2023-04-03T16:49:06;9.32;;;7.35;;
46455;SDS011;64052;47.466;9.094;2023-04-03T16:54:08;4.25;;;3.83;;
46455;SDS011;64052;47.466;9.094;2023-04-03T16:59:09;6.05;;;5.05;;
46455;SDS011;64052;47.466;9.094;2023-04-03T17:04:11;5.22;;;4.72;;
46455;SDS011;64052;47.466;9.094;2023-04-03T17:09:13;6.25;;;4.53;;
46455;SDS011;64052;47.466;9.094;2023-04-03T17:14:14;5.05;;;4.65;;
46455;SDS011;64052;47.466;9.094;2023-04-03T17:19:16;4.85;;;4.45;;
46455;SDS011;64052;47.466;9.094;2023-04-03T17:24:18;7.18;;;4.30;;
46455;SDS011;64052;47.466;9.094;2023-04-03T17:29:20;5.10;;;4.25;;
46455;SDS011;64052;47.466;9.094;2023-04-03T17:34:22;4.60;;;4.20;;
46455;SDS011;64052;47.466;9.094;2023-04-03T17:39:23;5.15;;;4.70;;
46455;SDS011;64052;47.466;9.094;2023-04-03T17:44:25;6.30;;;5.28;;
46455;SDS011;64052;47.466;9.094;2023-04-03T17:49:27;5.40;;;4.82;;
46455;SDS011;64052;47.466;9.094;2023-04-03T17:54:28;4.35;;;3.95;;
46455;SDS011;64052;47.466;9.094;2023-04-03T17:59:30;5.38;;;4.45;;
46455;SDS011;64052;47.466;9.094;2023-04-03T18:04:33;6.40;;;3.95;;
46455;SDS011;64052;47.466;9.094;2023-04-03T18:09:34;4.15;;;3.78;;
46455;SDS011;64052;47.466;9.094;2023-04-03T18:14:38;4.80;;;4.18;;
46455;SDS011;64052;47.466;9.094;2023-04-03T18:19:41;4.60;;;3.80;;
46455;SDS011;64052;47.466;9.094;2023-04-03T18:24:42;3.92;;;3.53;;
46455;SDS011;64052;47.466;9.094;2023-04-03T18:29:45;4.35;;;3.95;;
46455;SDS011;64052;47.466;9.094;2023-04-03T18:34:50;4.93;;;3.78;;
46455;SDS011;64052;47.466;9.094;2023-04-03T18:39:52;6.07;;;4.65;;
46455;SDS011;64052;47.466;9.094;2023-04-03T18:44:57;5.20;;;3.90;;
46455;SDS011;64052;47.466;9.094;2023-04-03T18:50:02;5.00;;;4.30;;
46455;SDS011;64052;47.466;9.094;2023-04-03T18:55:04;5.60;;;4.88;;
46455;SDS011;64052;47.466;9.094;2023-04-03T19:00:07;3.95;;;3.10;;
46455;SDS011;64052;47.466;9.094;2023-04-03T19:05:10;3.80;;;3.25;;
46455;SDS011;64052;47.466;9.094;2023-04-03T19:10:15;4.88;;;2.90;;
46455;SDS011;64052;47.466;9.094;2023-04-03T19:15:21;5.40;;;3.28;;
46455;SDS011;64052;47.466;9.094;2023-04-03T19:20:24;4.07;;;3.03;;
46455;SDS011;64052;47.466;9.094;2023-04-03T19:25:25;3.47;;;3.17;;
46455;SDS011;64052;47.466;9.094;2023-04-03T19:30:27;4.57;;;2.92;;
46455;SDS011;64052;47.466;9.094;2023-04-03T19:35:28;4.05;;;3.00;;
46455;SDS011;64052;47.466;9.094;2023-04-03T19:40:30;4.32;;;2.97;;
46455;SDS011;64052;47.466;9.094;2023-04-03T19:45:32;3.72;;;2.70;;
46455;SDS011;64052;47.466;9.094;2023-04-03T19:50:33;3.15;;;2.80;;
46455;SDS011;64052;47.466;9.094;2023-04-03T19:55:35;2.90;;;2.70;;
46455;SDS011;64052;47.466;9.094;2023-04-03T20:00:37;5.10;;;3.67;;
46455;SDS011;64052;47.466;9.094;2023-04-03T20:05:39;3.10;;;2.90;;
46455;SDS011;64052;47.466;9.094;2023-04-03T20:10:41;3.10;;;2.88;;
46455;SDS011;64052;47.466;9.094;2023-04-03T20:15:43;4.93;;;3.75;;
46455;SDS011;64052;47.466;9.094;2023-04-03T20:20:54;3.33;;;3.03;;
46455;SDS011;64052;47.466;9.094;2023-04-03T20:25:58;2.97;;;2.63;;
46455;SDS011;64052;47.466;9.094;2023-04-03T20:31:15;4.10;;;2.70;;
46455;SDS011;64052;47.466;9.094;2023-04-03T20:36:17;3.47;;;2.50;;
46455;SDS011;64052;47.466;9.094;2023-04-03T20:41:19;3.22;;;2.95;;
46455;SDS011;64052;47.466;9.094;2023-04-03T20:46:20;3.63;;;2.92;;
46455;SDS011;64052;47.466;9.094;2023-04-03T20:51:22;2.92;;;2.53;;
46455;SDS011;64052;47.466;9.094;2023-04-03T20:56:24;2.55;;;2.33;;
46455;SDS011;64052;47.466;9.094;2023-04-03T21:01:29;4.50;;;2.83;;
46455;SDS011;64052;47.466;9.094;2023-04-03T21:23:07;2.65;;;2.45;;
46455;SDS011;64052;47.466;9.094;2023-04-03T21:28:09;2.90;;;2.70;;
46455;SDS011;64052;47.466;9.094;2023-04-03T21:33:11;4.00;;;2.85;;
46455;SDS011;64052;47.466;9.094;2023-04-03T21:38:13;4.68;;;2.55;;
46455;SDS011;64052;47.466;9.094;2023-04-03T21:43:14;2.75;;;2.42;;
46455;SDS011;64052;47.466;9.094;2023-04-03T21:48:16;3.83;;;3.40;;
46455;SDS011;64052;47.466;9.094;2023-04-03T21:53:21;3.13;;;2.83;;
46455;SDS011;64052;47.466;9.094;2023-04-03T21:58:27;4.45;;;2.95;;
46455;SDS011;64052;47.466;9.094;2023-04-03T22:03:31;3.72;;;2.70;;
46455;SDS011;64052;47.466;9.094;2023-04-03T22:08:33;2.85;;;2.58;;
46455;SDS011;64052;47.466;9.094;2023-04-03T22:13:35;2.80;;;2.47;;
46455;SDS011;64052;47.466;9.094;2023-04-03T22:18:37;3.80;;;2.88;;
46455;SDS011;64052;47.466;9.094;2023-04-03T22:23:38;4.32;;;2.70;;
46455;SDS011;64052;47.466;9.094;2023-04-03T22:28:41;2.90;;;2.55;;
46455;SDS011;64052;47.466;9.094;2023-04-03T22:33:44;2.85;;;2.60;;
46455;SDS011;64052;47.466;9.094;2023-04-03T22:38:46;3.55;;;2.80;;
46455;SDS011;64052;47.466;9.094;2023-04-03T22:43:48;2.63;;;2.42;;
46455;SDS011;64052;47.466;9.094;2023-04-03T22:48:49;2.97;;;2.78;;
46455;SDS011;64052;47.466;9.094;2023-04-03T22:53:51;3.72;;;2.35;;
46455;SDS011;64052;47.466;9.094;2023-04-03T22:58:52;3.67;;;2.90;;
46455;SDS011;64052;47.466;9.094;2023-04-03T23:03:54;3.28;;;2.97;;
46455;SDS011;64052;47.466;9.094;2023-04-03T23:08:55;3.17;;;2.88;;
46455;SDS011;64052;47.466;9.094;2023-04-03T23:13:57;3.08;;;2.72;;
46455;SDS011;64052;47.466;9.094;2023-04-03T23:18:58;3.10;;;2.90;;
46455;SDS011;64052;47.466;9.094;2023-04-03T23:24:00;2.90;;;2.70;;
46455;SDS011;64052;47.466;9.094;2023-04-03T23:29:02;3.20;;;2.85;;
46455;SDS011;64052;47.466;9.094;2023-04-03T23:34:03;2.85;;;2.50;;
46455;SDS011;64052;47.466;9.094;2023-04-03T23:39:05;3.40;;;2.70;;
46455;SDS011;64052;47.466;9.094;2023-04-03T23:44:07;2.50;;;2.30;;
46455;SDS011;64052;47.466;9.094;2023-04-03T23:49:08;4.43;;;2.70;;
46455;SDS011;64052;47.466;9.094;2023-04-03T23:54:10;3.50;;;3.13;;
46455;SDS011;64052;47.466;9.094;2023-04-03T23:59:11;3.03;;;2.83;;
